Terminal Aerodrome Forecast
Issued by NWS Cleveland, OH

Home | Current Version | Previous Version | Text Only | Print | Product List | Glossary On
Versions: 1 2 3 4 5 6 7 8 9 10 11 12 13 14 15 16 17 18 19 20 21 22 23 24 25 26
000
FTUS41 KCLE 171735
TAFCLE
TAF
KCLE 171735Z 1718/1824 15004KT P6SM OVC150
     FM172200 18007KT P6SM VCSH BKN050 OVC100
     FM180700 21008KT 5SM BR BKN012 OVC025
     FM181400 22011KT 3SM BR VCSH SCT008 OVC012=

USA.gov is the U.S. government's official web portal to all federal, state and local government web resources and services.